sensor_id;sensor_type;location;lat;lon;timestamp;pressure;altitude;pressure_sealevel;temperature;humidity
68941;BME280;55982;51.476;7.552;2022-10-31T00:01:46;100212.84;;;14.19;100.00
68941;BME280;55982;51.476;7.552;2022-10-31T00:04:11;100217.88;;;14.25;100.00
68941;BME280;55982;51.476;7.552;2022-10-31T00:06:37;100216.03;;;14.27;100.00
68941;BME280;55982;51.476;7.552;2022-10-31T00:09:03;100218.41;;;14.33;100.00
68941;BME280;55982;51.476;7.552;2022-10-31T00:11:29;100220.94;;;14.36;100.00
68941;BME280;55982;51.476;7.552;2022-10-31T00:13:56;100214.19;;;14.29;100.00
68941;BME280;55982;51.476;7.552;2022-10-31T00:16:24;100208.81;;;14.32;100.00
68941;BME280;55982;51.476;7.552;2022-10-31T00:18:54;100220.94;;;14.36;100.00
68941;BME280;55982;51.476;7.552;2022-10-31T00:21:21;100222.25;;;14.46;100.00
68941;BME280;55982;51.476;7.552;2022-10-31T00:23:47;100221.97;;;14.52;100.00
68941;BME280;55982;51.476;7.552;2022-10-31T00:26:13;100232.13;;;14.61;100.00
68941;BME280;55982;51.476;7.552;2022-10-31T00:28:38;100226.59;;;14.68;100.00
68941;BME280;55982;51.476;7.552;2022-10-31T00:31:06;100221.19;;;14.71;100.00
68941;BME280;55982;51.476;7.552;2022-10-31T00:33:33;100220.16;;;14.75;100.00
68941;BME280;55982;51.476;7.552;2022-10-31T00:35:59;100218.94;;;14.82;100.00
68941;BME280;55982;51.476;7.552;2022-10-31T00:38:25;100219.94;;;14.79;100.00
68941;BME280;55982;51.476;7.552;2022-10-31T00:40:50;100222.25;;;14.87;100.00
68941;BME280;55982;51.476;7.552;2022-10-31T00:43:15;100227.22;;;14.93;100.00
68941;BME280;55982;51.476;7.552;2022-10-31T00:45:41;100226.69;;;15.05;100.00
68941;BME280;55982;51.476;7.552;2022-10-31T00:48:07;100223.25;;;15.03;100.00
68941;BME280;55982;51.476;7.552;2022-10-31T00:50:33;100220.84;;;14.98;100.00
68941;BME280;55982;51.476;7.552;2022-10-31T00:52:58;100215.06;;;15.09;100.00
68941;BME280;55982;51.476;7.552;2022-10-31T00:55:23;100221.41;;;15.05;100.00
68941;BME280;55982;51.476;7.552;2022-10-31T00:57:49;100211.13;;;14.99;100.00
68941;BME280;55982;51.476;7.552;2022-10-31T01:00:15;100215.28;;;15.04;100.00
68941;BME280;55982;51.476;7.552;2022-10-31T01:02:40;100217.28;;;14.99;100.00
68941;BME280;55982;51.476;7.552;2022-10-31T01:05:06;100218.69;;;15.06;100.00
68941;BME280;55982;51.476;7.552;2022-10-31T01:07:34;100219.84;;;15.01;100.00
68941;BME280;55982;51.476;7.552;2022-10-31T01:10:00;100215.84;;;14.92;100.00
68941;BME280;55982;51.476;7.552;2022-10-31T01:12:25;100221.13;;;14.92;100.00
68941;BME280;55982;51.476;7.552;2022-10-31T01:14:51;100216.97;;;14.87;100.00
68941;BME280;55982;51.476;7.552;2022-10-31T01:17:16;100219.81;;;14.82;100.00
68941;BME280;55982;51.476;7.552;2022-10-31T01:19:41;100226.19;;;14.77;100.00
68941;BME280;55982;51.476;7.552;2022-10-31T01:22:07;100219.47;;;14.69;100.00
68941;BME280;55982;51.476;7.552;2022-10-31T01:24:32;100227.66;;;14.63;100.00
68941;BME280;55982;51.476;7.552;2022-10-31T01:26:57;100224.44;;;14.57;100.00
68941;BME280;55982;51.476;7.552;2022-10-31T01:29:23;100232.97;;;14.62;100.00
68941;BME280;55982;51.476;7.552;2022-10-31T01:31:48;100230.94;;;14.68;100.00
68941;BME280;55982;51.476;7.552;2022-10-31T01:34:16;100227.38;;;14.69;100.00
68941;BME280;55982;51.476;7.552;2022-10-31T01:36:42;100226.47;;;14.71;100.00
68941;BME280;55982;51.476;7.552;2022-10-31T01:39:12;100219.47;;;14.69;100.00
68941;BME280;55982;51.476;7.552;2022-10-31T01:41:42;100220.75;;;14.61;100.00
68941;BME280;55982;51.476;7.552;2022-10-31T01:49:18;100233.88;;;14.81;100.00
68941;BME280;55982;51.476;7.552;2022-10-31T01:51:48;100235.75;;;14.79;100.00
68941;BME280;55982;51.476;7.552;2022-10-31T01:54:18;100246.88;;;14.86;100.00
68941;BME280;55982;51.476;7.552;2022-10-31T01:56:49;100253.44;;;14.96;100.00
68941;BME280;55982;51.476;7.552;2022-10-31T01:59:17;100255.75;;;15.03;100.00
68941;BME280;55982;51.476;7.552;2022-10-31T02:01:45;100250.91;;;15.13;100.00
68941;BME280;55982;51.476;7.552;2022-10-31T02:04:11;100268.56;;;15.11;100.00
68941;BME280;55982;51.476;7.552;2022-10-31T02:06:43;100256.59;;;15.04;100.00
68941;BME280;55982;51.476;7.552;2022-10-31T02:09:10;100240.66;;;15.07;100.00
68941;BME280;55982;51.476;7.552;2022-10-31T02:11:37;100230.53;;;14.98;100.00
68941;BME280;55982;51.476;7.552;2022-10-31T02:14:03;100223.81;;;14.91;100.00
68941;BME280;55982;51.476;7.552;2022-10-31T02:16:29;100215.78;;;14.74;100.00
68941;BME280;55982;51.476;7.552;2022-10-31T02:18:54;100207.75;;;14.56;100.00
68941;BME280;55982;51.476;7.552;2022-10-31T02:29:49;100200.75;;;13.72;100.00
68941;BME280;55982;51.476;7.552;2022-10-31T02:32:27;100206.16;;;13.69;100.00
68941;BME280;55982;51.476;7.552;2022-10-31T02:41:09;100183.44;;;13.45;100.00
68941;BME280;55982;51.476;7.552;2022-10-31T02:43:20;100186.91;;;13.24;100.00
68941;BME280;55982;51.476;7.552;2022-10-31T02:48:20;100187.78;;;13.00;100.00
68941;BME280;55982;51.476;7.552;2022-10-31T02:50:53;100189.50;;;13.01;100.00
68941;BME280;55982;51.476;7.552;2022-10-31T02:53:20;100197.66;;;12.93;100.00
68941;BME280;55982;51.476;7.552;2022-10-31T02:58:41;100214.72;;;12.81;100.00
68941;BME280;55982;51.476;7.552;2022-10-31T03:06:30;100203.16;;;12.38;100.00
68941;BME280;55982;51.476;7.552;2022-10-31T03:12:06;100208.88;;;12.24;100.00
68941;BME280;55982;51.476;7.552;2022-10-31T03:14:41;100218.28;;;12.31;100.00
68941;BME280;55982;51.476;7.552;2022-10-31T03:17:13;100215.66;;;12.30;100.00
68941;BME280;55982;51.476;7.552;2022-10-31T03:19:43;100221.13;;;12.24;100.00
68941;BME280;55982;51.476;7.552;2022-10-31T03:22:25;100226.41;;;12.22;100.00
68941;BME280;55982;51.476;7.552;2022-10-31T03:24:53;100223.91;;;12.19;100.00
68941;BME280;55982;51.476;7.552;2022-10-31T03:27:25;100230.84;;;12.20;100.00
68941;BME280;55982;51.476;7.552;2022-10-31T03:29:54;100228.28;;;12.19;100.00
68941;BME280;55982;51.476;7.552;2022-10-31T03:32:34;100227.34;;;12.21;100.00
68941;BME280;55982;51.476;7.552;2022-10-31T03:35:02;100226.84;;;12.10;100.00
68941;BME280;55982;51.476;7.552;2022-10-31T03:37:32;100224.31;;;12.07;100.00
68941;BME280;55982;51.476;7.552;2022-10-31T03:40:00;100228.03;;;12.26;100.00
68941;BME280;55982;51.476;7.552;2022-10-31T03:42:31;100231.59;;;12.24;100.00
68941;BME280;55982;51.476;7.552;2022-10-31T03:45:08;100223.28;;;12.37;100.00
68941;BME280;55982;51.476;7.552;2022-10-31T03:47:37;100229.84;;;12.50;100.00
68941;BME280;55982;51.476;7.552;2022-10-31T03:50:05;100223.25;;;12.63;100.00
68941;BME280;55982;51.476;7.552;2022-10-31T03:55:10;100226.50;;;12.95;100.00
68941;BME280;55982;51.476;7.552;2022-10-31T03:57:51;100232.31;;;13.04;100.00
68941;BME280;55982;51.476;7.552;2022-10-31T04:00:18;100229.41;;;13.12;100.00
68941;BME280;55982;51.476;7.552;2022-10-31T04:05:23;100223.69;;;13.24;100.00
68941;BME280;55982;51.476;7.552;2022-10-31T04:07:52;100225.28;;;13.28;100.00
68941;BME280;55982;51.476;7.552;2022-10-31T04:10:19;100223.34;;;13.33;100.00
68941;BME280;55982;51.476;7.552;2022-10-31T04:12:49;100215.47;;;13.33;100.00
68941;BME280;55982;51.476;7.552;2022-10-31T04:15:16;100212.84;;;13.33;100.00
68941;BME280;55982;51.476;7.552;2022-10-31T04:17:45;100212.94;;;13.30;100.00
68941;BME280;55982;51.476;7.552;2022-10-31T04:20:15;100210.25;;;13.31;100.00
68941;BME280;55982;51.476;7.552;2022-10-31T04:22:41;100219.94;;;13.31;100.00
68941;BME280;55982;51.476;7.552;2022-10-31T04:25:06;100206.88;;;13.28;100.00
68941;BME280;55982;51.476;7.552;2022-10-31T04:27:32;100203.66;;;13.21;100.00
68941;BME280;55982;51.476;7.552;2022-10-31T04:29:57;100206.56;;;13.14;100.00
68941;BME280;55982;51.476;7.552;2022-10-31T04:32:24;100199.81;;;13.07;100.00
68941;BME280;55982;51.476;7.552;2022-10-31T04:34:49;100201.72;;;13.02;100.00
68941;BME280;55982;51.476;7.552;2022-10-31T04:37:15;100195.00;;;12.95;100.00
68941;BME280;55982;51.476;7.552;2022-10-31T04:39:40;100199.44;;;12.93;100.00
68941;BME280;55982;51.476;7.552;2022-10-31T04:42:05;100193.50;;;12.87;100.00
68941;BME280;55982;51.476;7.552;2022-10-31T04:44:31;100193.63;;;12.84;100.00
68941;BME280;55982;51.476;7.552;2022-10-31T04:46:56;100195.53;;;12.79;100.00
68941;BME280;55982;51.476;7.552;2022-10-31T04:49:21;100195.66;;;12.76;100.00
68941;BME280;55982;51.476;7.552;2022-10-31T04:51:47;100192.09;;;12.77;100.00
68941;BME280;55982;51.476;7.552;2022-10-31T04:54:12;100191.78;;;12.86;100.00
68941;BME280;55982;51.476;7.552;2022-10-31T04:56:37;100198.88;;;12.84;100.00
68941;BME280;55982;51.476;7.552;2022-10-31T04:59:03;100197.13;;;12.83;100.00
68941;BME280;55982;51.476;7.552;2022-10-31T05:01:28;100192.91;;;12.79;100.00
68941;BME280;55982;51.476;7.552;2022-10-31T05:03:54;100202.50;;;12.80;100.00
68941;BME280;55982;51.476;7.552;2022-10-31T05:06:19;100201.84;;;12.74;100.00
68941;BME280;55982;51.476;7.552;2022-10-31T05:08:44;100185.50;;;12.67;100.00
68941;BME280;55982;51.476;7.552;2022-10-31T05:11:10;100188.47;;;12.57;100.00
68941;BME280;55982;51.476;7.552;2022-10-31T05:13:36;100179.19;;;12.48;100.00
68941;BME280;55982;51.476;7.552;2022-10-31T05:16:01;100180.19;;;12.44;100.00
68941;BME280;55982;51.476;7.552;2022-10-31T05:18:27;100172.88;;;12.29;100.00
68941;BME280;55982;51.476;7.552;2022-10-31T05:20:53;100182.75;;;12.21;100.00
68941;BME280;55982;51.476;7.552;2022-10-31T05:23:18;100192.53;;;12.16;100.00
68941;BME280;55982;51.476;7.552;2022-10-31T05:25:43;100185.59;;;12.15;100.00
68941;BME280;55982;51.476;7.552;2022-10-31T05:28:09;100180.53;;;12.09;100.00
68941;BME280;55982;51.476;7.552;2022-10-31T05:30:34;100175.41;;;12.06;100.00
68941;BME280;55982;51.476;7.552;2022-10-31T05:33:00;100176.41;;;12.02;100.00
68941;BME280;55982;51.476;7.552;2022-10-31T05:35:31;100164.91;;;12.06;100.00
68941;BME280;55982;51.476;7.552;2022-10-31T05:37:57;100175.41;;;12.06;100.00
68941;BME280;55982;51.476;7.552;2022-10-31T05:40:24;100171.97;;;12.04;100.00
68941;BME280;55982;51.476;7.552;2022-10-31T05:42:52;100162.56;;;11.99;100.00
68941;BME280;55982;51.476;7.552;2022-10-31T05:45:18;100164.13;;;12.03;100.00
68941;BME280;55982;51.476;7.552;2022-10-31T05:48:00;100168.75;;;11.96;100.00
68941;BME280;55982;51.476;7.552;2022-10-31T05:50:28;100167.13;;;11.92;100.00
68941;BME280;55982;51.476;7.552;2022-10-31T05:52:59;100165.31;;;11.94;100.00
68941;BME280;55982;51.476;7.552;2022-10-31T05:55:25;100166.13;;;11.96;100.00
68941;BME280;55982;51.476;7.552;2022-10-31T05:57:52;100156.84;;;11.86;100.00
68941;BME280;55982;51.476;7.552;2022-10-31T06:00:18;100158.84;;;11.78;100.00
68941;BME280;55982;51.476;7.552;2022-10-31T06:02:44;100163.91;;;11.84;100.00
68941;BME280;55982;51.476;7.552;2022-10-31T06:05:10;100166.53;;;11.84;100.00
68941;BME280;55982;51.476;7.552;2022-10-31T06:07:35;100158.03;;;11.76;100.00
68941;BME280;55982;51.476;7.552;2022-10-31T06:10:03;100163.19;;;11.79;100.00
68941;BME280;55982;51.476;7.552;2022-10-31T06:12:29;100170.06;;;11.83;100.00
68941;BME280;55982;51.476;7.552;2022-10-31T06:14:54;100169.13;;;11.84;100.00
68941;BME280;55982;51.476;7.552;2022-10-31T06:17:19;100170.97;;;11.82;100.00
68941;BME280;55982;51.476;7.552;2022-10-31T06:19:45;100161.44;;;11.79;100.00
68941;BME280;55982;51.476;7.552;2022-10-31T06:22:10;100159.84;;;11.75;100.00
68941;BME280;55982;51.476;7.552;2022-10-31T06:24:38;100157.28;;;11.72;100.00
68941;BME280;55982;51.476;7.552;2022-10-31T06:27:04;100166.16;;;11.68;100.00
68941;BME280;55982;51.476;7.552;2022-10-31T06:29:30;100169.69;;;11.67;100.00
68941;BME280;55982;51.476;7.552;2022-10-31T06:31:55;100164.34;;;11.70;100.00
68941;BME280;55982;51.476;7.552;2022-10-31T06:34:21;100160.09;;;11.68;100.00
68941;BME280;55982;51.476;7.552;2022-10-31T06:36:46;100168.00;;;11.65;100.00
68941;BME280;55982;51.476;7.552;2022-10-31T06:39:12;100168.78;;;11.68;100.00
68941;BME280;55982;51.476;7.552;2022-10-31T06:41:38;100166.63;;;11.81;100.00
68941;BME280;55982;51.476;7.552;2022-10-31T06:44:05;100163.81;;;11.87;100.00
68941;BME280;55982;51.476;7.552;2022-10-31T06:46:31;100163.63;;;11.91;100.00
68941;BME280;55982;51.476;7.552;2022-10-31T06:48:56;100166.81;;;12.01;100.00
68941;BME280;55982;51.476;7.552;2022-10-31T06:51:21;100166.53;;;12.10;100.00
68941;BME280;55982;51.476;7.552;2022-10-31T06:53:47;100171.66;;;12.13;100.00
68941;BME280;55982;51.476;7.552;2022-10-31T06:56:12;100175.69;;;12.23;100.00
68941;BME280;55982;51.476;7.552;2022-10-31T06:58:38;100171.13;;;12.28;100.00
68941;BME280;55982;51.476;7.552;2022-10-31T07:01:03;100174.47;;;12.33;100.00
68941;BME280;55982;51.476;7.552;2022-10-31T07:03:28;100181.22;;;12.40;100.00
68941;BME280;55982;51.476;7.552;2022-10-31T07:05:57;100177.56;;;12.44;100.00
68941;BME280;55982;51.476;7.552;2022-10-31T07:08:23;100184.31;;;12.51;100.00
68941;BME280;55982;51.476;7.552;2022-10-31T07:10:53;100182.63;;;12.50;100.00
68941;BME280;55982;51.476;7.552;2022-10-31T07:13:19;100175.00;;;12.67;100.00
68941;BME280;55982;51.476;7.552;2022-10-31T07:15:50;100176.69;;;12.68;100.00
68941;BME280;55982;51.476;7.552;2022-10-31T07:18:15;100176.47;;;12.74;100.00
68941;BME280;55982;51.476;7.552;2022-10-31T07:20:40;100169.28;;;12.79;100.00
68941;BME280;55982;51.476;7.552;2022-10-31T07:23:07;100172.59;;;12.84;100.00
68941;BME280;55982;51.476;7.552;2022-10-31T07:25:32;100188.38;;;12.84;100.00
68941;BME280;55982;51.476;7.552;2022-10-31T07:27:58;100185.69;;;12.86;100.00
68941;BME280;55982;51.476;7.552;2022-10-31T07:30:23;100182.97;;;12.87;100.00
68941;BME280;55982;51.476;7.552;2022-10-31T07:32:49;100190.78;;;12.89;100.00
68941;BME280;55982;51.476;7.552;2022-10-31T07:35:17;100176.63;;;12.95;100.00
68941;BME280;55982;51.476;7.552;2022-10-31T07:37:43;100177.41;;;12.97;100.00
68941;BME280;55982;51.476;7.552;2022-10-31T07:40:09;100177.78;;;13.11;100.00
68941;BME280;55982;51.476;7.552;2022-10-31T07:42:35;100187.16;;;13.18;100.00
68941;BME280;55982;51.476;7.552;2022-10-31T07:45:02;100188.66;;;13.46;100.00
68941;BME280;55982;51.476;7.552;2022-10-31T07:47:27;100182.06;;;13.58;100.00
68941;BME280;55982;51.476;7.552;2022-10-31T07:49:52;100191.00;;;13.54;100.00
68941;BME280;55982;51.476;7.552;2022-10-31T07:52:18;100177.53;;;13.61;100.00
68941;BME280;55982;51.476;7.552;2022-10-31T07:54:43;100180.34;;;13.57;100.00
68941;BME280;55982;51.476;7.552;2022-10-31T07:57:08;100187.31;;;13.58;100.00
68941;BME280;55982;51.476;7.552;2022-10-31T07:59:34;100184.25;;;13.47;100.00
68941;BME280;55982;51.476;7.552;2022-10-31T08:01:59;100169.81;;;13.35;100.00
68941;BME280;55982;51.476;7.552;2022-10-31T08:04:25;100176.84;;;13.35;100.00
68941;BME280;55982;51.476;7.552;2022-10-31T08:06:50;100176.88;;;13.33;100.00
68941;BME280;55982;51.476;7.552;2022-10-31T08:09:15;100165.88;;;13.24;100.00
68941;BME280;55982;51.476;7.552;2022-10-31T08:11:41;100173.97;;;13.41;100.00
68941;BME280;55982;51.476;7.552;2022-10-31T08:14:06;100167.44;;;13.51;100.00
68941;BME280;55982;51.476;7.552;2022-10-31T08:16:31;100163.47;;;13.62;100.00
68941;BME280;55982;51.476;7.552;2022-10-31T08:18:57;100166.16;;;13.83;100.00
68941;BME280;55982;51.476;7.552;2022-10-31T08:21:22;100168.25;;;13.74;100.00
68941;BME280;55982;51.476;7.552;2022-10-31T08:23:48;100170.00;;;13.74;100.00
68941;BME280;55982;51.476;7.552;2022-10-31T08:26:13;100169.97;;;14.17;100.00
68941;BME280;55982;51.476;7.552;2022-10-31T08:28:38;100176.56;;;14.68;100.00
68941;BME280;55982;51.476;7.552;2022-10-31T08:31:04;100182.69;;;14.48;100.00
68941;BME280;55982;51.476;7.552;2022-10-31T08:33:29;100186.69;;;14.56;100.00
68941;BME280;55982;51.476;7.552;2022-10-31T08:35:57;100174.44;;;15.33;100.00
68941;BME280;55982;51.476;7.552;2022-10-31T08:38:23;100177.88;;;16.06;100.00
68941;BME280;55982;51.476;7.552;2022-10-31T08:40:48;100175.25;;;16.23;100.00
68941;BME280;55982;51.476;7.552;2022-10-31T08:43:16;100177.56;;;16.46;100.00
68941;BME280;55982;51.476;7.552;2022-10-31T08:45:43;100168.91;;;16.94;100.00
68941;BME280;55982;51.476;7.552;2022-10-31T08:48:11;100173.81;;;17.33;97.00
68941;BME280;55982;51.476;7.552;2022-10-31T08:50:37;100169.22;;;17.21;97.85
68941;BME280;55982;51.476;7.552;2022-10-31T08:53:14;100175.16;;;17.57;95.18
68941;BME280;55982;51.476;7.552;2022-10-31T08:55:41;100177.81;;;18.02;94.52
68941;BME280;55982;51.476;7.552;2022-10-31T08:58:11;100168.75;;;18.06;92.37
68941;BME280;55982;51.476;7.552;2022-10-31T09:00:37;100166.88;;;18.38;88.79
68941;BME280;55982;51.476;7.552;2022-10-31T09:03:05;100168.47;;;18.41;88.76
68941;BME280;55982;51.476;7.552;2022-10-31T09:05:30;100170.03;;;18.45;88.51
68941;BME280;55982;51.476;7.552;2022-10-31T09:07:57;100177.06;;;18.74;88.55
68941;BME280;55982;51.476;7.552;2022-10-31T09:10:24;100169.13;;;19.16;86.66
68941;BME280;55982;51.476;7.552;2022-10-31T09:13:19;100177.28;;;18.85;86.27
68941;BME280;55982;51.476;7.552;2022-10-31T09:15:47;100174.78;;;18.24;87.87
68941;BME280;55982;51.476;7.552;2022-10-31T09:18:17;100172.81;;;18.57;86.86
68941;BME280;55982;51.476;7.552;2022-10-31T09:20:44;100169.31;;;18.85;89.22
68941;BME280;55982;51.476;7.552;2022-10-31T09:23:12;100165.88;;;18.25;88.99
68941;BME280;55982;51.476;7.552;2022-10-31T09:25:39;100164.97;;;17.34;95.04
68941;BME280;55982;51.476;7.552;2022-10-31T09:28:06;100152.03;;;17.12;96.96
68941;BME280;55982;51.476;7.552;2022-10-31T09:30:33;100152.13;;;16.28;100.00
68941;BME280;55982;51.476;7.552;2022-10-31T09:33:04;100165.78;;;16.36;100.00
68941;BME280;55982;51.476;7.552;2022-10-31T09:35:31;100151.84;;;16.84;100.00
68941;BME280;55982;51.476;7.552;2022-10-31T09:37:57;100146.84;;;17.11;98.13
68941;BME280;55982;51.476;7.552;2022-10-31T09:40:29;100153.69;;;17.46;99.42
68941;BME280;55982;51.476;7.552;2022-10-31T09:46:07;100142.88;;;17.66;94.11
68941;BME280;55982;51.476;7.552;2022-10-31T09:51:33;100133.75;;;17.25;100.00
68941;BME280;55982;51.476;7.552;2022-10-31T09:54:08;100131.94;;;18.32;93.24
68941;BME280;55982;51.476;7.552;2022-10-31T09:56:36;100126.84;;;18.28;91.66
68941;BME280;55982;51.476;7.552;2022-10-31T09:59:05;100132.50;;;18.22;91.08
68941;BME280;55982;51.476;7.552;2022-10-31T10:04:18;100126.28;;;17.47;97.59
68941;BME280;55982;51.476;7.552;2022-10-31T10:06:50;100131.75;;;17.75;96.88
68941;BME280;55982;51.476;7.552;2022-10-31T10:09:16;100124.88;;;17.87;95.78
68941;BME280;55982;51.476;7.552;2022-10-31T10:14:49;100126.06;;;18.41;93.37
68941;BME280;55982;51.476;7.552;2022-10-31T10:17:32;100124.34;;;18.11;95.37
68941;BME280;55982;51.476;7.552;2022-10-31T10:22:45;100119.78;;;18.43;94.56
68941;BME280;55982;51.476;7.552;2022-10-31T10:25:23;100119.66;;;18.31;93.05
68941;BME280;55982;51.476;7.552;2022-10-31T10:28:13;100117.63;;;18.20;95.57
68941;BME280;55982;51.476;7.552;2022-10-31T10:33:15;100112.97;;;17.33;99.43
68941;BME280;55982;51.476;7.552;2022-10-31T10:35:53;100104.13;;;17.34;100.00
68941;BME280;55982;51.476;7.552;2022-10-31T10:38:28;100104.28;;;17.00;100.00
68941;BME280;55982;51.476;7.552;2022-10-31T10:41:01;100104.28;;;17.31;100.00
68941;BME280;55982;51.476;7.552;2022-10-31T10:43:33;100093.03;;;17.27;100.00
68941;BME280;55982;51.476;7.552;2022-10-31T10:46:12;100101.38;;;17.35;100.00
68941;BME280;55982;51.476;7.552;2022-10-31T10:49:04;100094.41;;;17.19;100.00
68941;BME280;55982;51.476;7.552;2022-10-31T10:55:29;100081.09;;;17.36;100.00
68941;BME280;55982;51.476;7.552;2022-10-31T10:58:02;100078.72;;;18.06;99.44
68941;BME280;55982;51.476;7.552;2022-10-31T11:00:35;100070.03;;;18.04;97.67
68941;BME280;55982;51.476;7.552;2022-10-31T11:03:01;100065.47;;;18.64;96.69
68941;BME280;55982;51.476;7.552;2022-10-31T11:08:11;100064.22;;;18.70;95.44
68941;BME280;55982;51.476;7.552;2022-10-31T11:11:03;100062.25;;;19.28;92.65
68941;BME280;55982;51.476;7.552;2022-10-31T11:13:31;100057.00;;;20.57;84.49
68941;BME280;55982;51.476;7.552;2022-10-31T11:16:03;100054.31;;;20.82;83.14
68941;BME280;55982;51.476;7.552;2022-10-31T11:18:34;100047.28;;;21.30;81.69
68941;BME280;55982;51.476;7.552;2022-10-31T11:21:02;100033.53;;;20.51;82.88
68941;BME280;55982;51.476;7.552;2022-10-31T11:23:29;100032.94;;;21.20;81.43
68941;BME280;55982;51.476;7.552;2022-10-31T11:26:03;100039.69;;;21.00;80.57
68941;BME280;55982;51.476;7.552;2022-10-31T11:28:30;100027.34;;;20.13;83.55
68941;BME280;55982;51.476;7.552;2022-10-31T11:31:05;100026.38;;;20.01;84.41
68941;BME280;55982;51.476;7.552;2022-10-31T11:33:39;100025.56;;;19.61;87.34
68941;BME280;55982;51.476;7.552;2022-10-31T11:36:23;100022.34;;;19.56;87.79
68941;BME280;55982;51.476;7.552;2022-10-31T11:38:50;100008.53;;;20.03;87.28
68941;BME280;55982;51.476;7.552;2022-10-31T11:41:25;99999.19;;;20.48;84.57
68941;BME280;55982;51.476;7.552;2022-10-31T11:44:10;99988.13;;;20.29;84.73
68941;BME280;55982;51.476;7.552;2022-10-31T11:46:58;99987.97;;;19.67;87.62
68941;BME280;55982;51.476;7.552;2022-10-31T11:49:44;99996.56;;;19.58;89.25
68941;BME280;55982;51.476;7.552;2022-10-31T11:54:55;99962.75;;;19.35;91.68
68941;BME280;55982;51.476;7.552;2022-10-31T12:00:04;99946.19;;;19.44;91.13
68941;BME280;55982;51.476;7.552;2022-10-31T12:02:31;99943.69;;;19.55;87.28
68941;BME280;55982;51.476;7.552;2022-10-31T12:05:20;99950.72;;;19.69;87.01
68941;BME280;55982;51.476;7.552;2022-10-31T12:07:47;99958.38;;;19.98;87.23
68941;BME280;55982;51.476;7.552;2022-10-31T12:10:13;99957.72;;;20.07;88.30
68941;BME280;55982;51.476;7.552;2022-10-31T12:13:08;99959.34;;;19.33;86.94
68941;BME280;55982;51.476;7.552;2022-10-31T12:15:50;99950.19;;;19.76;88.02
68941;BME280;55982;51.476;7.552;2022-10-31T12:18:40;99940.28;;;19.53;88.68
68941;BME280;55982;51.476;7.552;2022-10-31T12:21:38;99942.22;;;19.76;88.74
68941;BME280;55982;51.476;7.552;2022-10-31T12:33:14;99930.72;;;20.39;84.93
68941;BME280;55982;51.476;7.552;2022-10-31T12:38:42;99919.66;;;20.45;83.85
68941;BME280;55982;51.476;7.552;2022-10-31T12:41:28;99912.72;;;20.55;85.25
68941;BME280;55982;51.476;7.552;2022-10-31T12:44:08;99902.16;;;20.66;85.54
68941;BME280;55982;51.476;7.552;2022-10-31T12:46:47;99900.09;;;20.46;87.83
68941;BME280;55982;51.476;7.552;2022-10-31T13:00:19;99881.38;;;20.94;85.10
68941;BME280;55982;51.476;7.552;2022-10-31T13:02:58;99880.88;;;21.13;82.65
68941;BME280;55982;51.476;7.552;2022-10-31T13:05:30;99873.28;;;20.96;81.82
68941;BME280;55982;51.476;7.552;2022-10-31T13:08:03;99865.72;;;20.79;82.74
68941;BME280;55982;51.476;7.552;2022-10-31T13:11:22;99856.47;;;20.12;87.84
68941;BME280;55982;51.476;7.552;2022-10-31T13:16:18;99851.69;;;20.04;87.65
68941;BME280;55982;51.476;7.552;2022-10-31T13:18:52;99839.78;;;20.10;87.97
68941;BME280;55982;51.476;7.552;2022-10-31T13:21:35;99834.09;;;20.03;88.77
68941;BME280;55982;51.476;7.552;2022-10-31T13:24:04;99828.19;;;20.24;87.44
68941;BME280;55982;51.476;7.552;2022-10-31T13:27:03;99824.06;;;20.20;86.85
68941;BME280;55982;51.476;7.552;2022-10-31T13:29:44;99817.81;;;20.21;87.01
68941;BME280;55982;51.476;7.552;2022-10-31T13:32:15;99811.53;;;20.22;86.87
68941;BME280;55982;51.476;7.552;2022-10-31T13:34:44;99803.28;;;20.37;86.38
68941;BME280;55982;51.476;7.552;2022-10-31T13:43:05;99811.66;;;20.44;83.39
68941;BME280;55982;51.476;7.552;2022-10-31T13:45:31;99821.25;;;20.34;83.74
68941;BME280;55982;51.476;7.552;2022-10-31T13:48:00;99813.00;;;20.26;84.72
68941;BME280;55982;51.476;7.552;2022-10-31T13:50:32;99798.78;;;20.27;82.25
68941;BME280;55982;51.476;7.552;2022-10-31T13:53:10;99794.06;;;20.18;82.96
68941;BME280;55982;51.476;7.552;2022-10-31T13:55:44;99786.09;;;20.18;84.54
68941;BME280;55982;51.476;7.552;2022-10-31T13:58:28;99779.19;;;20.28;82.63
68941;BME280;55982;51.476;7.552;2022-10-31T14:03:29;99778.81;;;20.08;84.98
68941;BME280;55982;51.476;7.552;2022-10-31T14:05:56;99766.84;;;19.90;82.98
68941;BME280;55982;51.476;7.552;2022-10-31T14:08:23;99760.16;;;19.97;81.43
68941;BME280;55982;51.476;7.552;2022-10-31T14:10:53;99752.41;;;19.94;83.98
68941;BME280;55982;51.476;7.552;2022-10-31T14:13:51;99741.88;;;20.05;81.74
68941;BME280;55982;51.476;7.552;2022-10-31T14:16:36;99746.75;;;19.99;81.00
68941;BME280;55982;51.476;7.552;2022-10-31T14:19:08;99748.50;;;19.87;83.65
68941;BME280;55982;51.476;7.552;2022-10-31T14:21:49;99740.66;;;19.73;84.76
68941;BME280;55982;51.476;7.552;2022-10-31T14:29:44;99728.38;;;19.72;87.86
68941;BME280;55982;51.476;7.552;2022-10-31T14:34:42;99726.81;;;19.93;83.23
68941;BME280;55982;51.476;7.552;2022-10-31T14:45:14;99708.44;;;19.54;84.52
68941;BME280;55982;51.476;7.552;2022-10-31T14:47:47;99724.78;;;19.48;85.23
68941;BME280;55982;51.476;7.552;2022-10-31T14:53:01;99698.69;;;19.30;87.04
68941;BME280;55982;51.476;7.552;2022-10-31T14:55:28;99713.00;;;19.27;85.20
68941;BME280;55982;51.476;7.552;2022-10-31T14:57:58;99711.00;;;19.18;86.46